Terminal Aerodrome Forecast
Issued by NWS

Home | Current Version | Previous Version | Text Only | Print | Product List | Glossary On
Versions: 1 2 3 4 5 6 7 8 9 10 11 12 13
814
FTUS44 KTSA 131736
TAFFYV
TAF
KFYV 131736Z 1318/1418 10007KT P6SM SCT250
     FM132100 14008KT P6SM SCT250
     FM140600 16010KT P6SM OVC050
     FM141200 17008KT 4SM -FZDZ OVC015
     FM141500 17007KT 4SM -FZDZ OVC007=

USA.gov is the U.S. government's official web portal to all federal, state and local government web resources and services.